sensor_id;sensor_type;location;lat;lon;timestamp;P1;durP1;ratioP1;P2;durP2;ratioP2
71767;SDS011;59604;52.138;5.446;2022-07-30T00:01:12;11.88;;;4.78;;
71767;SDS011;59604;52.138;5.446;2022-07-30T00:03:39;9.80;;;4.90;;
71767;SDS011;59604;52.138;5.446;2022-07-30T00:06:06;11.70;;;4.90;;
71767;SDS011;59604;52.138;5.446;2022-07-30T00:08:33;11.75;;;4.40;;
71767;SDS011;59604;52.138;5.446;2022-07-30T00:10:59;10.18;;;4.32;;
71767;SDS011;59604;52.138;5.446;2022-07-30T00:13:26;13.05;;;4.68;;
71767;SDS011;59604;52.138;5.446;2022-07-30T00:15:53;9.55;;;4.60;;
71767;SDS011;59604;52.138;5.446;2022-07-30T00:18:19;10.43;;;4.00;;
71767;SDS011;59604;52.138;5.446;2022-07-30T00:20:47;12.50;;;4.07;;
71767;SDS011;59604;52.138;5.446;2022-07-30T00:23:15;9.60;;;4.32;;
71767;SDS011;59604;52.138;5.446;2022-07-30T00:25:42;10.23;;;4.50;;
71767;SDS011;59604;52.138;5.446;2022-07-30T00:28:09;11.63;;;4.22;;
71767;SDS011;59604;52.138;5.446;2022-07-30T00:30:35;8.82;;;4.40;;
71767;SDS011;59604;52.138;5.446;2022-07-30T00:33:04;8.75;;;4.30;;
71767;SDS011;59604;52.138;5.446;2022-07-30T00:35:33;9.48;;;4.57;;
71767;SDS011;59604;52.138;5.446;2022-07-30T00:37:59;9.23;;;4.53;;
71767;SDS011;59604;52.138;5.446;2022-07-30T00:40:26;11.88;;;4.10;;
71767;SDS011;59604;52.138;5.446;2022-07-30T00:42:53;10.88;;;4.53;;
71767;SDS011;59604;52.138;5.446;2022-07-30T00:45:19;9.05;;;4.50;;
71767;SDS011;59604;52.138;5.446;2022-07-30T00:47:46;12.52;;;4.25;;
71767;SDS011;59604;52.138;5.446;2022-07-30T00:50:13;9.57;;;4.00;;
71767;SDS011;59604;52.138;5.446;2022-07-30T00:52:41;11.52;;;4.63;;
71767;SDS011;59604;52.138;5.446;2022-07-30T00:55:08;9.65;;;3.95;;
71767;SDS011;59604;52.138;5.446;2022-07-30T00:57:36;14.20;;;4.30;;
71767;SDS011;59604;52.138;5.446;2022-07-30T01:02:33;11.50;;;4.18;;
71767;SDS011;59604;52.138;5.446;2022-07-30T01:05:01;12.35;;;4.57;;
71767;SDS011;59604;52.138;5.446;2022-07-30T01:07:27;10.15;;;4.00;;
71767;SDS011;59604;52.138;5.446;2022-07-30T01:09:54;11.57;;;4.30;;
71767;SDS011;59604;52.138;5.446;2022-07-30T01:12:22;8.98;;;4.28;;
71767;SDS011;59604;52.138;5.446;2022-07-30T01:14:51;10.45;;;4.50;;
71767;SDS011;59604;52.138;5.446;2022-07-30T01:17:20;12.00;;;5.07;;
71767;SDS011;59604;52.138;5.446;2022-07-30T01:19:47;10.20;;;4.68;;
71767;SDS011;59604;52.138;5.446;2022-07-30T01:27:30;11.70;;;5.07;;
71767;SDS011;59604;52.138;5.446;2022-07-30T01:30:00;14.02;;;5.05;;
71767;SDS011;59604;52.138;5.446;2022-07-30T01:32:30;11.95;;;5.15;;
71767;SDS011;59604;52.138;5.446;2022-07-30T01:34:58;11.55;;;4.93;;
71767;SDS011;59604;52.138;5.446;2022-07-30T01:37:27;13.45;;;4.57;;
71767;SDS011;59604;52.138;5.446;2022-07-30T01:42:23;11.30;;;4.72;;
71767;SDS011;59604;52.138;5.446;2022-07-30T01:44:52;9.55;;;4.57;;
71767;SDS011;59604;52.138;5.446;2022-07-30T01:47:19;11.82;;;4.82;;
71767;SDS011;59604;52.138;5.446;2022-07-30T01:49:48;9.45;;;5.10;;
71767;SDS011;59604;52.138;5.446;2022-07-30T01:52:17;12.30;;;4.97;;
71767;SDS011;59604;52.138;5.446;2022-07-30T01:54:47;8.88;;;4.60;;
71767;SDS011;59604;52.138;5.446;2022-07-30T01:57:16;9.98;;;5.00;;
71767;SDS011;59604;52.138;5.446;2022-07-30T01:59:46;10.43;;;4.72;;
71767;SDS011;59604;52.138;5.446;2022-07-30T02:02:15;10.10;;;5.13;;
71767;SDS011;59604;52.138;5.446;2022-07-30T02:04:43;12.00;;;4.90;;
71767;SDS011;59604;52.138;5.446;2022-07-30T02:07:14;16.55;;;5.63;;
71767;SDS011;59604;52.138;5.446;2022-07-30T02:09:43;10.27;;;4.65;;
71767;SDS011;59604;52.138;5.446;2022-07-30T02:12:16;10.43;;;4.95;;
71767;SDS011;59604;52.138;5.446;2022-07-30T02:14:56;14.10;;;5.53;;
71767;SDS011;59604;52.138;5.446;2022-07-30T02:17:36;12.60;;;5.35;;
71767;SDS011;59604;52.138;5.446;2022-07-30T02:20:10;11.10;;;5.15;;
71767;SDS011;59604;52.138;5.446;2022-07-30T02:22:39;10.57;;;5.35;;
71767;SDS011;59604;52.138;5.446;2022-07-30T02:25:11;10.77;;;5.53;;
71767;SDS011;59604;52.138;5.446;2022-07-30T02:27:47;12.85;;;5.78;;
71767;SDS011;59604;52.138;5.446;2022-07-30T02:30:17;13.63;;;5.72;;
71767;SDS011;59604;52.138;5.446;2022-07-30T02:32:44;12.02;;;5.90;;
71767;SDS011;59604;52.138;5.446;2022-07-30T02:35:14;12.68;;;5.45;;
71767;SDS011;59604;52.138;5.446;2022-07-30T02:37:46;10.98;;;5.22;;
71767;SDS011;59604;52.138;5.446;2022-07-30T02:40:14;10.55;;;5.57;;
71767;SDS011;59604;52.138;5.446;2022-07-30T02:42:44;10.80;;;4.97;;
71767;SDS011;59604;52.138;5.446;2022-07-30T02:45:12;13.32;;;5.53;;
71767;SDS011;59604;52.138;5.446;2022-07-30T02:47:43;10.88;;;5.32;;
71767;SDS011;59604;52.138;5.446;2022-07-30T02:50:13;11.52;;;5.60;;
71767;SDS011;59604;52.138;5.446;2022-07-30T02:52:41;14.00;;;5.30;;
71767;SDS011;59604;52.138;5.446;2022-07-30T02:55:09;16.13;;;6.00;;
71767;SDS011;59604;52.138;5.446;2022-07-30T02:57:38;14.85;;;5.95;;
71767;SDS011;59604;52.138;5.446;2022-07-30T03:00:09;11.48;;;5.43;;
71767;SDS011;59604;52.138;5.446;2022-07-30T03:02:37;12.07;;;5.30;;
71767;SDS011;59604;52.138;5.446;2022-07-30T03:05:08;12.77;;;5.65;;
71767;SDS011;59604;52.138;5.446;2022-07-30T03:07:36;10.23;;;5.82;;
71767;SDS011;59604;52.138;5.446;2022-07-30T03:10:04;12.63;;;5.65;;
71767;SDS011;59604;52.138;5.446;2022-07-30T03:12:33;16.00;;;5.97;;
71767;SDS011;59604;52.138;5.446;2022-07-30T03:17:27;10.68;;;5.53;;
71767;SDS011;59604;52.138;5.446;2022-07-30T03:20:00;11.90;;;5.70;;
71767;SDS011;59604;52.138;5.446;2022-07-30T03:22:29;10.68;;;5.70;;
71767;SDS011;59604;52.138;5.446;2022-07-30T03:25:00;12.02;;;5.97;;
71767;SDS011;59604;52.138;5.446;2022-07-30T03:27:27;12.00;;;5.70;;
71767;SDS011;59604;52.138;5.446;2022-07-30T03:32:23;14.18;;;5.47;;
71767;SDS011;59604;52.138;5.446;2022-07-30T03:34:51;12.15;;;5.53;;
71767;SDS011;59604;52.138;5.446;2022-07-30T03:37:21;11.35;;;6.00;;
71767;SDS011;59604;52.138;5.446;2022-07-30T03:39:48;10.77;;;5.85;;
71767;SDS011;59604;52.138;5.446;2022-07-30T03:42:15;9.68;;;5.13;;
71767;SDS011;59604;52.138;5.446;2022-07-30T03:44:42;11.23;;;5.80;;
71767;SDS011;59604;52.138;5.446;2022-07-30T03:47:11;13.10;;;5.85;;
71767;SDS011;59604;52.138;5.446;2022-07-30T03:49:38;12.57;;;6.15;;
71767;SDS011;59604;52.138;5.446;2022-07-30T03:52:06;11.57;;;5.70;;
71767;SDS011;59604;52.138;5.446;2022-07-30T03:54:33;11.52;;;5.93;;
71767;SDS011;59604;52.138;5.446;2022-07-30T03:57:01;13.30;;;6.10;;
71767;SDS011;59604;52.138;5.446;2022-07-30T03:59:29;14.02;;;5.97;;
71767;SDS011;59604;52.138;5.446;2022-07-30T04:02:00;13.45;;;6.70;;
71767;SDS011;59604;52.138;5.446;2022-07-30T04:04:32;11.90;;;6.28;;
71767;SDS011;59604;52.138;5.446;2022-07-30T04:06:59;13.57;;;6.30;;
71767;SDS011;59604;52.138;5.446;2022-07-30T04:09:26;12.00;;;6.05;;
71767;SDS011;59604;52.138;5.446;2022-07-30T04:11:53;13.82;;;6.57;;
71767;SDS011;59604;52.138;5.446;2022-07-30T04:14:19;13.30;;;6.15;;
71767;SDS011;59604;52.138;5.446;2022-07-30T04:16:48;13.18;;;6.85;;
71767;SDS011;59604;52.138;5.446;2022-07-30T04:19:37;11.77;;;6.50;;
71767;SDS011;59604;52.138;5.446;2022-07-30T04:22:07;14.32;;;6.28;;
71767;SDS011;59604;52.138;5.446;2022-07-30T04:24:35;13.77;;;6.18;;
71767;SDS011;59604;52.138;5.446;2022-07-30T04:27:04;11.90;;;6.47;;
71767;SDS011;59604;52.138;5.446;2022-07-30T04:29:31;13.63;;;6.38;;
71767;SDS011;59604;52.138;5.446;2022-07-30T04:31:58;11.18;;;5.70;;
71767;SDS011;59604;52.138;5.446;2022-07-30T04:34:25;14.60;;;6.43;;
71767;SDS011;59604;52.138;5.446;2022-07-30T04:36:51;15.80;;;6.85;;
71767;SDS011;59604;52.138;5.446;2022-07-30T04:39:18;12.90;;;5.95;;
71767;SDS011;59604;52.138;5.446;2022-07-30T04:41:45;13.35;;;6.90;;
71767;SDS011;59604;52.138;5.446;2022-07-30T04:44:16;13.30;;;6.43;;
71767;SDS011;59604;52.138;5.446;2022-07-30T04:46:44;11.93;;;6.13;;
71767;SDS011;59604;52.138;5.446;2022-07-30T04:49:14;12.50;;;6.50;;
71767;SDS011;59604;52.138;5.446;2022-07-30T04:51:43;14.60;;;7.50;;
71767;SDS011;59604;52.138;5.446;2022-07-30T04:54:11;13.55;;;7.13;;
71767;SDS011;59604;52.138;5.446;2022-07-30T04:56:41;16.23;;;7.53;;
71767;SDS011;59604;52.138;5.446;2022-07-30T04:59:26;15.13;;;7.45;;
71767;SDS011;59604;52.138;5.446;2022-07-30T05:01:53;13.90;;;7.15;;
71767;SDS011;59604;52.138;5.446;2022-07-30T05:04:22;15.07;;;7.00;;
71767;SDS011;59604;52.138;5.446;2022-07-30T05:06:50;15.15;;;8.13;;
71767;SDS011;59604;52.138;5.446;2022-07-30T05:09:17;16.58;;;7.55;;
71767;SDS011;59604;52.138;5.446;2022-07-30T05:11:53;16.27;;;7.55;;
71767;SDS011;59604;52.138;5.446;2022-07-30T05:14:21;15.25;;;7.18;;
71767;SDS011;59604;52.138;5.446;2022-07-30T05:16:50;13.95;;;7.43;;
71767;SDS011;59604;52.138;5.446;2022-07-30T05:19:17;14.82;;;7.28;;
71767;SDS011;59604;52.138;5.446;2022-07-30T05:21:45;13.27;;;7.78;;
71767;SDS011;59604;52.138;5.446;2022-07-30T05:24:11;13.55;;;7.10;;
71767;SDS011;59604;52.138;5.446;2022-07-30T05:26:38;13.07;;;6.93;;
71767;SDS011;59604;52.138;5.446;2022-07-30T05:29:05;16.20;;;7.00;;
71767;SDS011;59604;52.138;5.446;2022-07-30T05:31:34;12.30;;;6.25;;
71767;SDS011;59604;52.138;5.446;2022-07-30T05:34:03;14.20;;;6.78;;
71767;SDS011;59604;52.138;5.446;2022-07-30T05:36:29;14.65;;;7.10;;
71767;SDS011;59604;52.138;5.446;2022-07-30T05:38:56;11.38;;;6.88;;
71767;SDS011;59604;52.138;5.446;2022-07-30T05:41:23;13.05;;;7.10;;
71767;SDS011;59604;52.138;5.446;2022-07-30T05:43:58;12.90;;;6.22;;
71767;SDS011;59604;52.138;5.446;2022-07-30T05:46:25;15.32;;;6.65;;
71767;SDS011;59604;52.138;5.446;2022-07-30T05:48:52;12.98;;;6.40;;
71767;SDS011;59604;52.138;5.446;2022-07-30T05:51:19;14.55;;;6.40;;
71767;SDS011;59604;52.138;5.446;2022-07-30T05:53:47;13.55;;;6.35;;
71767;SDS011;59604;52.138;5.446;2022-07-30T05:56:14;12.93;;;5.97;;
71767;SDS011;59604;52.138;5.446;2022-07-30T05:58:41;10.10;;;5.55;;
71767;SDS011;59604;52.138;5.446;2022-07-30T06:01:08;13.43;;;5.80;;
71767;SDS011;59604;52.138;5.446;2022-07-30T06:03:34;9.25;;;5.53;;
71767;SDS011;59604;52.138;5.446;2022-07-30T06:06:01;9.70;;;5.30;;
71767;SDS011;59604;52.138;5.446;2022-07-30T06:08:29;14.73;;;5.97;;
71767;SDS011;59604;52.138;5.446;2022-07-30T06:10:56;14.52;;;5.65;;
71767;SDS011;59604;52.138;5.446;2022-07-30T06:13:22;10.07;;;5.90;;
71767;SDS011;59604;52.138;5.446;2022-07-30T06:15:49;12.27;;;6.07;;
71767;SDS011;59604;52.138;5.446;2022-07-30T06:18:17;11.60;;;5.63;;
71767;SDS011;59604;52.138;5.446;2022-07-30T06:20:43;11.25;;;6.00;;
71767;SDS011;59604;52.138;5.446;2022-07-30T06:23:10;13.88;;;5.80;;
71767;SDS011;59604;52.138;5.446;2022-07-30T06:25:37;11.55;;;5.32;;
71767;SDS011;59604;52.138;5.446;2022-07-30T06:28:05;9.75;;;5.10;;
71767;SDS011;59604;52.138;5.446;2022-07-30T06:30:52;10.55;;;5.38;;
71767;SDS011;59604;52.138;5.446;2022-07-30T06:33:19;11.07;;;5.03;;
71767;SDS011;59604;52.138;5.446;2022-07-30T06:35:45;8.80;;;4.72;;
71767;SDS011;59604;52.138;5.446;2022-07-30T06:38:12;10.07;;;4.00;;
71767;SDS011;59604;52.138;5.446;2022-07-30T06:40:39;8.90;;;4.25;;
71767;SDS011;59604;52.138;5.446;2022-07-30T06:43:05;11.20;;;4.70;;
71767;SDS011;59604;52.138;5.446;2022-07-30T06:45:32;10.45;;;4.13;;
71767;SDS011;59604;52.138;5.446;2022-07-30T06:47:58;9.55;;;4.32;;
71767;SDS011;59604;52.138;5.446;2022-07-30T06:50:25;8.63;;;3.55;;
71767;SDS011;59604;52.138;5.446;2022-07-30T06:52:53;7.97;;;3.25;;
71767;SDS011;59604;52.138;5.446;2022-07-30T06:55:20;7.57;;;3.25;;
71767;SDS011;59604;52.138;5.446;2022-07-30T06:57:46;8.88;;;3.42;;
71767;SDS011;59604;52.138;5.446;2022-07-30T07:00:13;8.82;;;3.45;;
71767;SDS011;59604;52.138;5.446;2022-07-30T07:02:40;7.93;;;3.47;;
71767;SDS011;59604;52.138;5.446;2022-07-30T07:05:08;8.02;;;3.42;;
71767;SDS011;59604;52.138;5.446;2022-07-30T07:07:34;7.40;;;3.53;;
71767;SDS011;59604;52.138;5.446;2022-07-30T07:10:09;6.63;;;3.55;;
71767;SDS011;59604;52.138;5.446;2022-07-30T07:12:36;6.35;;;3.30;;
71767;SDS011;59604;52.138;5.446;2022-07-30T07:15:03;6.10;;;3.05;;
71767;SDS011;59604;52.138;5.446;2022-07-30T07:17:31;7.53;;;2.80;;
71767;SDS011;59604;52.138;5.446;2022-07-30T07:19:57;8.48;;;2.63;;
71767;SDS011;59604;52.138;5.446;2022-07-30T07:22:25;10.40;;;3.45;;
71767;SDS011;59604;52.138;5.446;2022-07-30T07:24:52;5.88;;;2.28;;
71767;SDS011;59604;52.138;5.446;2022-07-30T07:27:19;9.95;;;2.58;;
71767;SDS011;59604;52.138;5.446;2022-07-30T07:29:45;8.52;;;2.75;;
71767;SDS011;59604;52.138;5.446;2022-07-30T07:32:32;7.28;;;2.63;;
71767;SDS011;59604;52.138;5.446;2022-07-30T07:34:59;7.40;;;2.80;;
71767;SDS011;59604;52.138;5.446;2022-07-30T07:37:26;8.02;;;3.00;;
71767;SDS011;59604;52.138;5.446;2022-07-30T07:39:53;7.90;;;2.92;;
71767;SDS011;59604;52.138;5.446;2022-07-30T07:42:19;7.13;;;2.95;;
71767;SDS011;59604;52.138;5.446;2022-07-30T07:44:46;9.10;;;2.60;;
71767;SDS011;59604;52.138;5.446;2022-07-30T07:47:13;5.30;;;2.65;;
71767;SDS011;59604;52.138;5.446;2022-07-30T07:49:39;5.40;;;2.67;;
71767;SDS011;59604;52.138;5.446;2022-07-30T07:52:06;6.47;;;2.72;;
71767;SDS011;59604;52.138;5.446;2022-07-30T07:54:32;5.32;;;2.63;;
71767;SDS011;59604;52.138;5.446;2022-07-30T07:56:59;6.78;;;2.50;;
71767;SDS011;59604;52.138;5.446;2022-07-30T07:59:29;6.47;;;2.33;;
71767;SDS011;59604;52.138;5.446;2022-07-30T08:02:05;6.65;;;2.40;;
71767;SDS011;59604;52.138;5.446;2022-07-30T08:04:33;6.53;;;2.60;;
71767;SDS011;59604;52.138;5.446;2022-07-30T08:07:00;5.93;;;2.50;;
71767;SDS011;59604;52.138;5.446;2022-07-30T08:09:28;6.50;;;2.30;;
71767;SDS011;59604;52.138;5.446;2022-07-30T08:12:13;7.15;;;2.33;;
71767;SDS011;59604;52.138;5.446;2022-07-30T08:14:39;5.70;;;2.30;;
71767;SDS011;59604;52.138;5.446;2022-07-30T08:17:06;8.07;;;2.20;;
71767;SDS011;59604;52.138;5.446;2022-07-30T08:19:34;4.55;;;2.28;;
71767;SDS011;59604;52.138;5.446;2022-07-30T08:22:00;5.72;;;2.30;;
71767;SDS011;59604;52.138;5.446;2022-07-30T08:24:27;6.90;;;2.75;;
71767;SDS011;59604;52.138;5.446;2022-07-30T08:26:53;5.95;;;2.35;;
71767;SDS011;59604;52.138;5.446;2022-07-30T08:29:20;6.20;;;2.22;;
71767;SDS011;59604;52.138;5.446;2022-07-30T08:31:46;7.40;;;2.47;;
71767;SDS011;59604;52.138;5.446;2022-07-30T08:34:13;7.70;;;2.58;;
71767;SDS011;59604;52.138;5.446;2022-07-30T08:36:40;7.53;;;2.30;;
71767;SDS011;59604;52.138;5.446;2022-07-30T08:39:07;5.13;;;2.22;;
71767;SDS011;59604;52.138;5.446;2022-07-30T08:41:34;8.25;;;2.63;;
71767;SDS011;59604;52.138;5.446;2022-07-30T08:46:31;5.65;;;2.60;;
71767;SDS011;59604;52.138;5.446;2022-07-30T08:48:59;6.18;;;2.67;;
71767;SDS011;59604;52.138;5.446;2022-07-30T08:51:34;5.93;;;2.50;;
71767;SDS011;59604;52.138;5.446;2022-07-30T08:54:01;6.53;;;2.65;;
71767;SDS011;59604;52.138;5.446;2022-07-30T08:56:28;7.22;;;2.25;;
71767;SDS011;59604;52.138;5.446;2022-07-30T08:58:57;6.07;;;2.22;;
71767;SDS011;59604;52.138;5.446;2022-07-30T09:01:24;6.38;;;2.30;;
71767;SDS011;59604;52.138;5.446;2022-07-30T09:03:51;7.20;;;1.92;;
71767;SDS011;59604;52.138;5.446;2022-07-30T09:06:18;6.75;;;1.92;;
71767;SDS011;59604;52.138;5.446;2022-07-30T09:08:44;5.75;;;1.80;;
71767;SDS011;59604;52.138;5.446;2022-07-30T09:11:11;5.45;;;1.80;;
71767;SDS011;59604;52.138;5.446;2022-07-30T09:13:39;5.63;;;2.13;;
71767;SDS011;59604;52.138;5.446;2022-07-30T09:16:18;4.43;;;1.88;;
71767;SDS011;59604;52.138;5.446;2022-07-30T09:18:49;4.60;;;1.80;;
71767;SDS011;59604;52.138;5.446;2022-07-30T09:24:01;7.07;;;2.10;;
71767;SDS011;59604;52.138;5.446;2022-07-30T09:26:33;4.75;;;1.60;;
71767;SDS011;59604;52.138;5.446;2022-07-30T09:29:19;5.78;;;1.83;;
71767;SDS011;59604;52.138;5.446;2022-07-30T09:32:21;5.15;;;2.20;;
71767;SDS011;59604;52.138;5.446;2022-07-30T09:34:40;4.55;;;1.90;;
71767;SDS011;59604;52.138;5.446;2022-07-30T09:39:35;4.95;;;2.20;;
71767;SDS011;59604;52.138;5.446;2022-07-30T09:42:04;5.43;;;2.10;;
71767;SDS011;59604;52.138;5.446;2022-07-30T09:44:43;5.60;;;2.00;;
71767;SDS011;59604;52.138;5.446;2022-07-30T09:47:28;7.30;;;2.10;;
71767;SDS011;59604;52.138;5.446;2022-07-30T09:50:01;5.65;;;1.98;;
71767;SDS011;59604;52.138;5.446;2022-07-30T09:53:04;5.82;;;1.85;;
71767;SDS011;59604;52.138;5.446;2022-07-30T09:55:33;4.95;;;2.25;;
71767;SDS011;59604;52.138;5.446;2022-07-30T09:58:06;6.22;;;2.00;;
71767;SDS011;59604;52.138;5.446;2022-07-30T10:00:34;5.68;;;2.25;;
71767;SDS011;59604;52.138;5.446;2022-07-30T10:03:21;5.63;;;2.05;;
71767;SDS011;59604;52.138;5.446;2022-07-30T10:06:07;6.30;;;1.88;;
71767;SDS011;59604;52.138;5.446;2022-07-30T10:08:49;6.85;;;2.13;;
71767;SDS011;59604;52.138;5.446;2022-07-30T10:13:56;4.47;;;1.85;;
71767;SDS011;59604;52.138;5.446;2022-07-30T10:16:25;6.05;;;2.40;;
71767;SDS011;59604;52.138;5.446;2022-07-30T10:18:54;8.07;;;2.97;;
71767;SDS011;59604;52.138;5.446;2022-07-30T10:21:23;6.07;;;2.13;;
71767;SDS011;59604;52.138;5.446;2022-07-30T10:23:51;5.93;;;2.20;;
71767;SDS011;59604;52.138;5.446;2022-07-30T10:26:18;5.18;;;2.15;;
71767;SDS011;59604;52.138;5.446;2022-07-30T10:28:46;4.10;;;2.00;;
71767;SDS011;59604;52.138;5.446;2022-07-30T10:31:13;3.97;;;1.80;;
71767;SDS011;59604;52.138;5.446;2022-07-30T10:34:00;6.60;;;2.10;;
71767;SDS011;59604;52.138;5.446;2022-07-30T10:36:27;6.28;;;2.35;;
71767;SDS011;59604;52.138;5.446;2022-07-30T10:38:55;5.28;;;2.20;;
71767;SDS011;59604;52.138;5.446;2022-07-30T10:44:40;4.47;;;1.90;;
71767;SDS011;59604;52.138;5.446;2022-07-30T10:47:20;5.15;;;2.35;;
71767;SDS011;59604;52.138;5.446;2022-07-30T10:52:44;5.70;;;2.50;;
71767;SDS011;59604;52.138;5.446;2022-07-30T10:55:11;4.05;;;1.92;;
71767;SDS011;59604;52.138;5.446;2022-07-30T11:06:23;4.20;;;1.90;;
71767;SDS011;59604;52.138;5.446;2022-07-30T11:08:51;5.70;;;1.98;;
71767;SDS011;59604;52.138;5.446;2022-07-30T11:14:09;4.05;;;1.63;;
71767;SDS011;59604;52.138;5.446;2022-07-30T11:24:50;5.75;;;1.92;;
71767;SDS011;59604;52.138;5.446;2022-07-30T11:32:50;4.63;;;1.95;;
71767;SDS011;59604;52.138;5.446;2022-07-30T11:35:19;5.05;;;2.03;;
71767;SDS011;59604;52.138;5.446;2022-07-30T11:43:16;6.15;;;2.08;;
71767;SDS011;59604;52.138;5.446;2022-07-30T11:48:37;5.72;;;1.90;;
71767;SDS011;59604;52.138;5.446;2022-07-30T11:51:06;5.15;;;2.00;;
71767;SDS011;59604;52.138;5.446;2022-07-30T11:53:34;5.55;;;2.03;;
71767;SDS011;59604;52.138;5.446;2022-07-30T11:56:01;5.20;;;2.10;;
71767;SDS011;59604;52.138;5.446;2022-07-30T11:58:30;5.22;;;2.20;;
71767;SDS011;59604;52.138;5.446;2022-07-30T12:01:12;6.10;;;2.10;;
71767;SDS011;59604;52.138;5.446;2022-07-30T12:03:41;4.25;;;2.03;;
71767;SDS011;59604;52.138;5.446;2022-07-30T12:06:10;8.18;;;1.90;;
71767;SDS011;59604;52.138;5.446;2022-07-30T12:08:49;4.65;;;1.85;;
71767;SDS011;59604;52.138;5.446;2022-07-30T12:11:24;4.30;;;1.73;;
71767;SDS011;59604;52.138;5.446;2022-07-30T12:13:57;7.05;;;1.90;;
71767;SDS011;59604;52.138;5.446;2022-07-30T12:16:26;5.75;;;1.67;;
71767;SDS011;59604;52.138;5.446;2022-07-30T12:18:53;4.65;;;1.92;;
71767;SDS011;59604;52.138;5.446;2022-07-30T12:21:20;3.83;;;1.58;;
71767;SDS011;59604;52.138;5.446;2022-07-30T12:23:56;4.47;;;1.70;;
71767;SDS011;59604;52.138;5.446;2022-07-30T12:26:26;5.32;;;1.90;;
71767;SDS011;59604;52.138;5.446;2022-07-30T12:28:58;4.18;;;1.65;;
71767;SDS011;59604;52.138;5.446;2022-07-30T12:31:26;6.63;;;1.90;;
71767;SDS011;59604;52.138;5.446;2022-07-30T12:33:53;4.65;;;1.70;;
71767;SDS011;59604;52.138;5.446;2022-07-30T12:36:26;5.35;;;1.85;;
71767;SDS011;59604;52.138;5.446;2022-07-30T12:38:56;4.65;;;1.60;;
71767;SDS011;59604;52.138;5.446;2022-07-30T12:41:43;5.57;;;1.63;;
71767;SDS011;59604;52.138;5.446;2022-07-30T12:47:00;4.35;;;1.58;;
71767;SDS011;59604;52.138;5.446;2022-07-30T12:49:30;4.95;;;1.63;;
71767;SDS011;59604;52.138;5.446;2022-07-30T12:52:18;4.00;;;1.50;;
71767;SDS011;59604;52.138;5.446;2022-07-30T12:55:01;3.95;;;1.58;;
71767;SDS011;59604;52.138;5.446;2022-07-30T13:00:44;5.20;;;1.65;;
71767;SDS011;59604;52.138;5.446;2022-07-30T13:03:27;4.50;;;1.42;;
71767;SDS011;59604;52.138;5.446;2022-07-30T13:05:55;5.32;;;1.70;;
71767;SDS011;59604;52.138;5.446;2022-07-30T13:11:26;4.80;;;1.45;;
71767;SDS011;59604;52.138;5.446;2022-07-30T13:14:04;4.00;;;1.70;;
71767;SDS011;59604;52.138;5.446;2022-07-30T13:16:32;4.07;;;1.60;;
71767;SDS011;59604;52.138;5.446;2022-07-30T13:19:08;3.55;;;1.52;;
71767;SDS011;59604;52.138;5.446;2022-07-30T13:21:38;3.80;;;1.52;;
71767;SDS011;59604;52.138;5.446;2022-07-30T13:24:15;5.15;;;1.65;;
71767;SDS011;59604;52.138;5.446;2022-07-30T13:26:43;4.00;;;1.63;;
71767;SDS011;59604;52.138;5.446;2022-07-30T13:29:10;5.18;;;1.63;;
71767;SDS011;59604;52.138;5.446;2022-07-30T13:31:39;6.28;;;1.80;;
71767;SDS011;59604;52.138;5.446;2022-07-30T13:34:10;3.63;;;1.48;;
71767;SDS011;59604;52.138;5.446;2022-07-30T13:39:04;4.47;;;1.50;;
71767;SDS011;59604;52.138;5.446;2022-07-30T13:41:30;4.78;;;1.60;;
71767;SDS011;59604;52.138;5.446;2022-07-30T13:43:58;4.82;;;1.77;;
71767;SDS011;59604;52.138;5.446;2022-07-30T13:46:24;3.88;;;1.73;;
71767;SDS011;59604;52.138;5.446;2022-07-30T13:48:51;7.32;;;1.75;;
71767;SDS011;59604;52.138;5.446;2022-07-30T13:51:18;4.65;;;1.70;;
71767;SDS011;59604;52.138;5.446;2022-07-30T13:53:44;6.43;;;1.70;;
71767;SDS011;59604;52.138;5.446;2022-07-30T13:56:11;4.68;;;1.52;;
71767;SDS011;59604;52.138;5.446;2022-07-30T13:58:38;3.90;;;1.58;;
71767;SDS011;59604;52.138;5.446;2022-07-30T14:01:06;4.85;;;1.90;;
71767;SDS011;59604;52.138;5.446;2022-07-30T14:03:33;3.63;;;1.70;;
71767;SDS011;59604;52.138;5.446;2022-07-30T14:08:36;4.30;;;1.52;;
71767;SDS011;59604;52.138;5.446;2022-07-30T14:11:03;5.68;;;1.67;;
71767;SDS011;59604;52.138;5.446;2022-07-30T14:13:30;4.40;;;1.85;;
71767;SDS011;59604;52.138;5.446;2022-07-30T14:15:57;4.15;;;1.77;;
71767;SDS011;59604;52.138;5.446;2022-07-30T14:18:24;5.68;;;1.52;;
71767;SDS011;59604;52.138;5.446;2022-07-30T14:20:50;4.63;;;1.63;;
71767;SDS011;59604;52.138;5.446;2022-07-30T14:23:18;4.47;;;1.92;;
71767;SDS011;59604;52.138;5.446;2022-07-30T14:25:45;5.65;;;1.52;;
71767;SDS011;59604;52.138;5.446;2022-07-30T14:28:12;4.43;;;1.70;;
71767;SDS011;59604;52.138;5.446;2022-07-30T14:30:39;4.47;;;1.88;;
71767;SDS011;59604;52.138;5.446;2022-07-30T14:33:05;3.88;;;1.83;;
71767;SDS011;59604;52.138;5.446;2022-07-30T14:35:32;4.80;;;1.70;;
71767;SDS011;59604;52.138;5.446;2022-07-30T14:37:58;4.53;;;1.63;;
71767;SDS011;59604;52.138;5.446;2022-07-30T14:40:25;8.30;;;1.88;;
71767;SDS011;59604;52.138;5.446;2022-07-30T14:42:52;3.78;;;1.70;;
71767;SDS011;59604;52.138;5.446;2022-07-30T14:45:21;4.50;;;1.83;;
71767;SDS011;59604;52.138;5.446;2022-07-30T14:47:48;5.25;;;1.80;;
71767;SDS011;59604;52.138;5.446;2022-07-30T14:50:14;5.38;;;1.73;;
71767;SDS011;59604;52.138;5.446;2022-07-30T14:52:41;6.35;;;1.60;;
71767;SDS011;59604;52.138;5.446;2022-07-30T14:55:08;5.65;;;1.75;;
71767;SDS011;59604;52.138;5.446;2022-07-30T14:57:35;4.10;;;1.60;;
71767;SDS011;59604;52.138;5.446;2022-07-30T15:00:03;4.78;;;1.80;;
71767;SDS011;59604;52.138;5.446;2022-07-30T15:02:30;4.88;;;1.80;;
71767;SDS011;59604;52.138;5.446;2022-07-30T15:04:57;4.65;;;1.40;;
71767;SDS011;59604;52.138;5.446;2022-07-30T15:07:23;5.20;;;1.90;;
71767;SDS011;59604;52.138;5.446;2022-07-30T15:09:50;5.68;;;1.60;;
71767;SDS011;59604;52.138;5.446;2022-07-30T15:12:16;5.95;;;1.63;;
71767;SDS011;59604;52.138;5.446;2022-07-30T15:14:52;3.53;;;1.60;;
71767;SDS011;59604;52.138;5.446;2022-07-30T15:17:19;7.30;;;1.92;;
71767;SDS011;59604;52.138;5.446;2022-07-30T15:19:46;3.92;;;1.55;;
71767;SDS011;59604;52.138;5.446;2022-07-30T15:22:16;4.30;;;1.77;;
71767;SDS011;59604;52.138;5.446;2022-07-30T15:24:44;5.20;;;1.88;;
71767;SDS011;59604;52.138;5.446;2022-07-30T15:27:10;4.20;;;1.63;;
71767;SDS011;59604;52.138;5.446;2022-07-30T15:29:37;5.13;;;1.48;;
71767;SDS011;59604;52.138;5.446;2022-07-30T15:32:04;4.18;;;1.80;;
71767;SDS011;59604;52.138;5.446;2022-07-30T15:34:31;5.75;;;2.20;;
71767;SDS011;59604;52.138;5.446;2022-07-30T15:37:02;5.85;;;1.88;;
71767;SDS011;59604;52.138;5.446;2022-07-30T15:39:30;4.97;;;1.73;;
71767;SDS011;59604;52.138;5.446;2022-07-30T15:42:01;5.10;;;1.77;;
71767;SDS011;59604;52.138;5.446;2022-07-30T15:44:31;4.75;;;1.85;;
71767;SDS011;59604;52.138;5.446;2022-07-30T15:46:58;5.65;;;1.83;;
71767;SDS011;59604;52.138;5.446;2022-07-30T15:49:25;4.57;;;1.90;;
71767;SDS011;59604;52.138;5.446;2022-07-30T15:51:53;5.88;;;1.80;;
71767;SDS011;59604;52.138;5.446;2022-07-30T15:54:22;4.15;;;1.95;;
71767;SDS011;59604;52.138;5.446;2022-07-30T15:56:48;4.93;;;2.20;;
71767;SDS011;59604;52.138;5.446;2022-07-30T15:59:15;5.72;;;2.17;;
71767;SDS011;59604;52.138;5.446;2022-07-30T16:01:42;6.05;;;2.28;;
71767;SDS011;59604;52.138;5.446;2022-07-30T16:04:09;5.97;;;1.92;;
71767;SDS011;59604;52.138;5.446;2022-07-30T16:06:44;6.53;;;2.20;;
71767;SDS011;59604;52.138;5.446;2022-07-30T16:09:11;6.85;;;2.65;;
71767;SDS011;59604;52.138;5.446;2022-07-30T16:11:38;7.25;;;2.40;;
71767;SDS011;59604;52.138;5.446;2022-07-30T16:14:07;4.82;;;1.95;;